Share

El Dorado Springs, MO (64744)

Nevada (KMONEVAD4) Elev 863 ft | 37.82 °N, 94.33 °W | Change Station

Current weather conditions updated 0 second ago

Light Rain
Light Rain
59.4 °F
Feels Like 59.4 °F
N
2.2
Wind Variable Wind from ESE
Gusts 3.1 mph
Sunrise 6:32 AM
Sunset 7:57 PM
Moon Waning Gibbous

Today is forecast to be Cooler than yesterday. Showers and thunderstorms.

Pressure 30.03 in
Visibility 3.0 miles
Clouds Few 2000 ft
Scattered Clouds 3600 ft
Overcast 4800 ft
Dew Point 57 °F
Humidity 92%
Rainfall 0.15 in
Snow Depth Not available.
UV 0 out of 16
Pollen 3.80 out of 12
Air Quality Not available.
Flu Activity Sporadic
METAR KGLY 211115Z AUTO 20006KT 3SM -RA FEW020 SCT036 OVC048 16/16 A3003 RMK AO2 P0001

More Conditions Fewer Conditions

Pressure 30.03 in
Visibility 3.0 miles
Clouds Few 2000 ft
Scattered Clouds 3600 ft
Overcast 4800 ft
Dew Point 57 °F
Humidity 92%
Rainfall 0.15 in
Snow Depth Not available.
UV 0 out of 16
Pollen 3.80 out of 12
Air Quality Not available.
Flu Activity Sporadic
METAR KGLY 211115Z AUTO 20006KT 3SM -RA FEW020 SCT036 OVC048 16/16 A3003 RMK AO2 P0001

More Conditions Fewer Conditions

10-Day Weather Forecast

Almanac

Astronomy

Apr. 21, 2014 Rise Set
Actual Time 6:32 AM CDT 7:57 PM CDT
Civil Twilight 6:05 AM CDT 8:25 PM CDT
Nautical Twilight 5:32 AM CDT 8:58 PM CDT
Astronomical Twilight 4:57 AM CDT 9:33 PM CDT
Moon 1:26 AM CDT 12:01 PM CDT
Length of Visible Light 14h 19m
Length of Day
13h 24m
Tomorrow will be 2m 15s longer.
Waning Gibbous, 60% of the Moon is Illuminated
Today
Waning Gibbous
Apr 22
Last Quarter
Apr 29
New
May 6
First Quarter
May 14
Full

Today's Extremes

State Highs State Lows

Community

  • Snowy Robin
    Snowy Robin
  • Sun Pillar and Geese
    Sun Pillar and Geese
  • Showers on the Way
    Showers on the Way
  • Easter Morning Fog
    Easter Morning Fog
  • Easter Dance
    Easter Dance

WunderPhotos

Upload Photos

1,703,591 photos uploaded!

WunderBlogs® & News

Nearby

Snow Depth

Station Depth Elevation
No new snow has been reported.

Coastal Water Temperatures

Place Temperature
No Stations Reporting

Earthquake Activity

City Distance Mag. Time & Date
No recent earthquake activity has been reported nearby.
Minimum magnitude displayed is 2.5.

Nearby Weather Stations

Station Location Temp. Dew Point Humidity Wind Precip. Elev Updated Type
Nevada, Nevada, MO 59.4 °F 57 °F 92% ESE  at  2.2 mph 0.04 in / hr 863 ft 7:16 AM EDT Rapid Fire
Freemont St, Stockton, MO 59.2 °F 47 °F 65% SW  at  2.2 mph 0.00 in / hr 948 ft 6:15 AM CDT Rapid Fire
Gordon's Orchard, Collins, MO 58.6 °F 59 °F 100% SSW  at  0.0 mph - / hr 925 ft 6:02 AM CDT Normal
Irwin, MO, Lamar, MO 59.0 °F 58 °F 97% SSE  at  1.0 mph 0.03 in / hr 955 ft 6:03 AM CDT Normal

Show More Stations Show Fewer Stations

What do you think?

We're not finished. Please let us know what you like, what you don't like, and what you are still missing.